TAF LEZL
LEZL 270200Z 2703/2803 31008KT CAVOK TX16/2714Z TN02/2705Z PROB40 TEMPO 2703/2708 4000 BR BKN009 PROB30 TEMPO 2703/2708 0500 FG VV001=
METAR LEZL
LEZL 270730Z 17004KT 130V230 CAVOK 04/02 Q1013 NOSIG=
LEZL 270700Z 21006KT CAVOK 05/04 Q1013 NOSIG=
LEZL 270630Z 24001KT CAVOK 04/03 Q1013 NOSIG=
LEZL 270600Z 00000KT CAVOK 04/03 Q1013 NOSIG=
LEZL 270530Z 00000KT CAVOK 04/02 Q1013 NOSIG=
WC LEZL
WS LEZL
WV LEZL